createdAt,value
2023-04-25T00:02:16.305Z,152990.44
2023-04-25T00:04:50.195Z,152985.25
2023-04-25T00:07:20.699Z,152978.78
2023-04-25T00:09:50.886Z,152981.41
2023-04-25T00:12:21.274Z,152973.63
2023-04-25T00:14:54.111Z,152952.91
2023-04-25T00:17:25.742Z,152968.44
2023-04-25T00:19:55.966Z,152971.06
2023-04-25T00:22:31.223Z,152968.44
2023-04-25T00:25:02.606Z,152965.81
2023-04-25T00:27:34.627Z,152959.38
2023-04-25T00:30:10.299Z,152967.16
2023-04-25T00:32:40.569Z,152977.50
2023-04-25T00:35:15.840Z,152980.06
2023-04-25T00:37:51.920Z,152969.72
2023-04-25T00:40:27.091Z,152967.16
2023-04-25T00:43:00.588Z,152968.44
2023-04-25T00:45:35.354Z,152967.16
2023-04-25T00:48:06.260Z,152968.44
2023-04-25T00:50:38.317Z,152978.78
2023-04-25T00:53:11.398Z,152971.06
2023-04-25T00:55:41.529Z,152969.72
2023-04-25T00:58:11.859Z,152961.97
2023-04-25T01:00:46.114Z,152967.16
2023-04-25T01:03:17.568Z,152969.72
2023-04-25T01:05:48.162Z,152973.63
2023-04-25T01:08:18.851Z,152963.25
2023-04-25T01:10:49.016Z,152960.66
2023-04-25T01:13:19.904Z,152964.53
2023-04-25T01:15:56.806Z,152976.22
2023-04-25T01:18:28.076Z,152968.44
2023-04-25T01:21:02.648Z,152959.38
2023-04-25T01:23:38.260Z,152956.81
2023-04-25T01:26:10.786Z,152950.31
2023-04-25T01:28:45.103Z,152954.19
2023-04-25T01:31:19.817Z,152971.06
2023-04-25T01:33:50.447Z,152960.66
2023-04-25T01:36:21.821Z,152965.81
2023-04-25T01:38:57.202Z,152969.72
2023-04-25T01:41:27.747Z,152958.09
2023-04-25T01:43:58.303Z,152942.50
2023-04-25T01:46:28.897Z,152958.09
2023-04-25T01:49:01.362Z,152958.09
2023-04-25T01:51:32.913Z,152942.50
2023-04-25T01:54:06.008Z,152932.16
2023-04-25T01:56:36.848Z,152915.31
2023-04-25T01:59:12.116Z,152958.09
2023-04-25T02:02:08.488Z,152915.31
2023-04-25T02:04:39.975Z,152920.47
2023-04-25T02:07:10.824Z,152914.03
2023-04-25T02:10:01.326Z,152916.63
2023-04-25T02:12:35.432Z,152890.72
2023-04-25T02:15:29.037Z,152910.13
2023-04-25T02:18:04.062Z,152907.56
2023-04-25T02:20:34.668Z,152901.06
2023-04-25T02:23:06.620Z,152906.25
2023-04-25T02:25:39.460Z,152897.22
2023-04-25T02:28:09.674Z,152897.22
2023-04-25T02:30:41.427Z,152884.25
2023-04-25T02:33:11.808Z,152888.16
2023-04-25T02:35:42.014Z,152880.38
2023-04-25T02:38:12.169Z,152877.81
2023-04-25T02:40:46.846Z,152868.72
2023-04-25T02:43:17.326Z,152881.66
2023-04-25T02:45:48.073Z,152884.25
2023-04-25T02:48:18.299Z,152885.53
2023-04-25T02:50:48.779Z,152872.63
2023-04-25T02:53:19.213Z,152884.25
2023-04-25T02:55:56.084Z,152881.66
2023-04-25T02:58:26.415Z,152871.28
2023-04-25T03:00:58.207Z,152867.44
2023-04-25T03:03:28.622Z,152872.63
2023-04-25T03:05:58.896Z,152879.09
2023-04-25T03:08:35.668Z,152889.44
2023-04-25T03:11:11.657Z,152882.97
2023-04-25T03:13:42.013Z,152877.81
2023-04-25T03:16:13.723Z,152863.56
2023-04-25T03:18:44.001Z,152882.97
2023-04-25T03:21:14.489Z,152875.19
2023-04-25T03:23:44.641Z,152866.13
2023-04-25T03:26:17.558Z,152873.91
2023-04-25T03:28:48.089Z,152872.63
2023-04-25T03:31:18.496Z,152873.91
2023-04-25T03:33:49.145Z,152875.19
2023-04-25T03:36:21.025Z,152889.44
2023-04-25T03:38:51.871Z,152860.94
2023-04-25T03:41:26.706Z,152867.44
2023-04-25T03:44:01.615Z,152858.38
2023-04-25T03:46:31.868Z,152833.78
2023-04-25T03:49:02.339Z,152851.88
2023-04-25T03:51:51.126Z,152828.63
2023-04-25T03:54:21.508Z,152826.00
2023-04-25T03:57:11.871Z,152827.28
2023-04-25T03:59:43.502Z,152816.94
2023-04-25T04:02:15.970Z,152811.78
2023-04-25T04:04:47.638Z,152788.50
2023-04-25T04:07:18.870Z,152792.34
2023-04-25T04:09:51.593Z,152794.97
2023-04-25T04:12:35.676Z,152761.31
2023-04-25T04:15:07.084Z,152767.78
2023-04-25T04:17:38.139Z,152748.41
2023-04-25T04:20:10.198Z,152743.19
2023-04-25T04:22:42.107Z,152743.19
2023-04-25T04:25:15.658Z,152748.41
2023-04-25T04:28:08.339Z,152740.63
2023-04-25T04:30:58.986Z,152735.47
2023-04-25T04:33:30.724Z,152712.16
2023-04-25T04:36:04.653Z,152717.31
2023-04-25T04:38:36.073Z,152709.59
2023-04-25T04:41:08.014Z,152701.81
2023-04-25T04:44:19.573Z,152686.28
2023-04-25T04:47:08.555Z,152688.84
2023-04-25T04:49:58.956Z,152664.31
2023-04-25T04:52:45.769Z,152648.75
2023-04-25T04:55:42.338Z,152648.75
2023-04-25T04:58:37.726Z,152643.59
2023-04-25T05:01:20.042Z,152644.91
2023-04-25T05:04:19.873Z,152642.31
2023-04-25T05:07:02.666Z,152621.63
2023-04-25T05:09:46.662Z,152633.25
2023-04-25T05:12:46.176Z,152629.34
2023-04-25T05:15:16.620Z,152608.69
2023-04-25T05:18:12.798Z,152607.41
2023-04-25T05:21:03.580Z,152619.03
2023-04-25T05:23:52.902Z,152593.16
2023-04-25T05:26:42.622Z,152608.69
2023-04-25T05:29:36.563Z,152646.19
2023-04-25T05:32:20.170Z,152656.53
2023-04-25T05:34:55.496Z,152616.47
2023-04-25T05:37:32.273Z,152646.19
2023-04-25T05:40:15.325Z,152655.25
2023-04-25T05:43:02.642Z,152661.72
2023-04-25T05:45:54.773Z,152675.94
2023-04-25T05:48:43.855Z,152699.25
2023-04-25T05:51:39.686Z,152709.59
2023-04-25T05:54:18.754Z,152726.38
2023-04-25T05:56:49.407Z,152754.88
2023-04-25T05:59:19.599Z,152814.38
2023-04-25T06:01:50.670Z,152805.31
2023-04-25T06:04:21.384Z,152837.69
2023-04-25T06:06:54.467Z,152844.13
2023-04-25T06:09:26.302Z,152846.69
2023-04-25T06:11:57.960Z,152863.56
2023-04-25T06:14:29.657Z,152928.28
2023-04-25T06:17:00.190Z,152937.34
2023-04-25T06:19:30.784Z,152968.44
2023-04-25T06:22:03.926Z,152983.97
2023-04-25T06:24:38.751Z,152959.38
2023-04-25T06:27:09.134Z,152947.75
2023-04-25T06:29:39.574Z,152995.66
2023-04-25T06:32:09.924Z,152958.09
2023-04-25T06:34:40.225Z,153012.47
2023-04-25T06:37:13.556Z,152958.09
2023-04-25T06:39:44.000Z,152965.81
2023-04-25T06:42:14.705Z,152963.25
2023-04-25T06:44:56.981Z,152965.81
2023-04-25T06:47:27.442Z,152928.28
2023-04-25T06:49:59.003Z,152934.72
2023-04-25T06:52:33.867Z,152963.25
2023-04-25T06:55:05.252Z,152964.53
2023-04-25T06:57:48.496Z,152956.81
2023-04-25T07:00:39.284Z,152960.66
2023-04-25T07:03:09.585Z,152961.97
2023-04-25T07:05:39.881Z,152980.06
2023-04-25T07:08:15.992Z,152974.91
2023-04-25T07:10:49.655Z,153025.44
2023-04-25T07:13:19.953Z,153069.41
2023-04-25T07:15:50.673Z,153095.34
2023-04-25T07:18:23.263Z,153105.69
2023-04-25T07:20:55.378Z,153074.59
2023-04-25T07:23:31.366Z,153128.97
2023-04-25T07:26:04.544Z,153101.81
2023-04-25T07:28:34.850Z,153100.53
2023-04-25T07:31:06.602Z,153131.59
2023-04-25T07:33:37.801Z,153170.47
2023-04-25T07:36:08.926Z,153135.50
2023-04-25T07:38:42.289Z,153165.28
2023-04-25T07:41:12.505Z,153248.19
2023-04-25T07:43:42.711Z,153261.13
2023-04-25T07:46:15.558Z,153162.66
2023-04-25T07:48:46.595Z,153191.16
2023-04-25T07:51:16.838Z,153210.59
2023-04-25T07:53:50.771Z,153195.06
2023-04-25T07:56:21.648Z,153210.59
2023-04-25T07:58:53.492Z,153331.09
2023-04-25T08:01:25.026Z,153324.63
2023-04-25T08:04:02.323Z,153449.09
2023-04-25T08:06:51.408Z,153603.38
2023-04-25T08:09:30.670Z,153668.22
2023-04-25T08:12:01.756Z,153703.28
2023-04-25T08:14:37.169Z,153746.09
2023-04-25T08:17:09.031Z,153631.91
2023-04-25T08:19:47.581Z,153737.03
2023-04-25T08:22:27.820Z,153796.69
2023-04-25T08:25:16.927Z,153768.13
2023-04-25T08:27:47.637Z,153734.44
2023-04-25T08:30:19.106Z,153935.56
2023-04-25T08:32:50.199Z,153899.22
2023-04-25T08:35:40.764Z,153921.28
2023-04-25T08:38:11.108Z,153935.56
2023-04-25T08:40:44.804Z,153865.47
2023-04-25T08:43:21.895Z,153752.59
2023-04-25T08:45:52.798Z,153733.13
2023-04-25T08:48:36.862Z,153856.38
2023-04-25T08:51:12.203Z,153873.28
2023-04-25T08:53:46.222Z,153947.28
2023-04-25T08:56:21.946Z,153860.28
2023-04-25T08:58:52.842Z,153851.19
2023-04-25T09:01:23.713Z,154029.09
2023-04-25T09:03:57.781Z,153868.09
2023-04-25T09:06:28.939Z,153769.47
2023-04-25T09:09:06.334Z,153968.03
2023-04-25T09:11:40.495Z,154079.72
2023-04-25T09:14:21.764Z,153875.84
2023-04-25T09:17:18.234Z,153829.16
2023-04-25T09:19:52.301Z,154014.75
2023-04-25T09:22:31.516Z,154127.78
2023-04-25T09:25:06.236Z,154148.53
2023-04-25T09:27:39.382Z,154083.63
2023-04-25T09:30:20.455Z,153846.00
2023-04-25T09:33:09.851Z,153757.78
2023-04-25T09:35:42.412Z,153818.78
2023-04-25T09:38:19.512Z,153874.56
2023-04-25T09:41:27.016Z,153901.81
2023-04-25T09:44:04.136Z,153979.69
2023-04-25T09:46:40.404Z,153833.06
2023-04-25T09:49:19.131Z,153865.47
2023-04-25T09:51:59.854Z,153746.09
2023-04-25T09:54:35.494Z,153779.84
2023-04-25T09:57:16.046Z,153698.03
2023-04-25T09:59:53.059Z,153720.19
2023-04-25T10:02:24.986Z,153703.28
2023-04-25T10:05:00.197Z,153783.75
2023-04-25T10:07:40.867Z,153800.59
2023-04-25T10:10:20.196Z,153735.75
2023-04-25T10:12:50.737Z,153790.22
2023-04-25T10:15:24.874Z,153907.00
2023-04-25T10:17:55.991Z,153907.00
2023-04-25T10:20:26.712Z,153855.09
2023-04-25T10:22:59.859Z,153820.06
2023-04-25T10:25:30.313Z,153882.38
2023-04-25T10:28:00.513Z,153786.31
2023-04-25T10:30:33.689Z,153953.75
2023-04-25T10:33:04.049Z,154132.97
2023-04-25T10:35:35.277Z,154214.81
2023-04-25T10:38:08.256Z,154036.91
2023-04-25T10:40:38.635Z,154105.72
2023-04-25T10:43:38.818Z,154105.72
2023-04-25T10:46:22.597Z,154145.97
2023-04-25T10:48:56.777Z,154138.16
2023-04-25T10:51:32.449Z,154122.59
2023-04-25T10:54:07.372Z,153966.75
2023-04-25T10:56:40.996Z,154091.44
2023-04-25T10:59:11.636Z,153983.59
2023-04-25T11:01:46.407Z,154061.56
2023-04-25T11:04:27.008Z,154181.03
2023-04-25T11:07:09.554Z,154291.44
2023-04-25T11:09:42.484Z,154244.69
2023-04-25T11:12:15.247Z,154148.53
2023-04-25T11:14:45.380Z,154047.28
2023-04-25T11:17:18.125Z,154292.72
2023-04-25T11:19:52.277Z,154190.13
2023-04-25T11:22:22.569Z,154044.66
2023-04-25T11:24:52.982Z,154161.53
2023-04-25T11:27:26.045Z,154234.25
2023-04-25T11:29:58.607Z,154181.03
2023-04-25T11:32:31.871Z,154035.56
2023-04-25T11:35:02.177Z,154056.38
2023-04-25T11:37:32.977Z,154125.16
2023-04-25T11:40:03.265Z,154049.84
2023-04-25T11:42:34.644Z,154134.25
2023-04-25T11:45:05.289Z,154166.75
2023-04-25T11:47:38.313Z,154353.88
2023-04-25T11:50:10.451Z,154425.31
2023-04-25T11:52:42.890Z,154473.44
2023-04-25T11:55:16.770Z,154405.84
2023-04-25T11:57:48.285Z,154451.31
2023-04-25T12:00:21.537Z,154321.38
2023-04-25T12:02:56.845Z,154349.97
2023-04-25T12:05:33.227Z,154426.63
2023-04-25T12:08:17.497Z,154516.28
2023-04-25T12:10:50.048Z,154482.50
2023-04-25T12:13:25.848Z,154452.59
2023-04-25T12:15:58.224Z,154413.66
2023-04-25T12:18:31.543Z,154232.97
2023-04-25T12:21:05.695Z,154216.09
2023-04-25T12:23:36.240Z,154355.16
2023-04-25T12:26:06.808Z,154308.31
2023-04-25T12:28:37.171Z,154136.88
2023-04-25T12:31:09.638Z,154200.53
2023-04-25T12:33:43.988Z,154191.41
2023-04-25T12:36:14.845Z,154174.50
2023-04-25T12:38:46.292Z,154216.09
2023-04-25T12:41:16.503Z,154164.13
2023-04-25T12:43:46.671Z,154200.53
2023-04-25T12:46:16.889Z,154260.28
2023-04-25T12:48:49.776Z,154379.84
2023-04-25T12:51:20.180Z,154453.94
2023-04-25T12:53:50.356Z,154486.41
2023-04-25T12:56:22.465Z,154599.56
2023-04-25T12:58:54.902Z,154573.53
2023-04-25T13:01:25.375Z,154654.19
2023-04-25T13:04:01.311Z,154598.28
2023-04-25T13:06:32.171Z,154656.81
2023-04-25T13:09:02.695Z,154626.84
2023-04-25T13:11:32.945Z,154500.72
2023-04-25T13:14:03.214Z,154456.50
2023-04-25T13:16:33.570Z,154539.72
2023-04-25T13:19:06.857Z,154468.25
2023-04-25T13:21:37.129Z,154440.91
2023-04-25T13:24:08.185Z,154485.13
2023-04-25T13:26:38.316Z,154438.34
2023-04-25T13:29:08.495Z,154413.66
2023-04-25T13:31:38.813Z,154430.53
2023-04-25T13:34:11.591Z,154339.56
2023-04-25T13:36:44.530Z,154375.94
2023-04-25T13:39:15.205Z,154437.00
2023-04-25T13:41:45.376Z,154430.53
2023-04-25T13:44:15.686Z,154460.41
2023-04-25T13:46:47.912Z,154435.72
2023-04-25T13:49:21.056Z,154469.53
2023-04-25T13:51:51.419Z,154452.59
2023-04-25T13:54:21.687Z,154489.03
2023-04-25T13:56:51.930Z,154407.13
2023-04-25T13:59:23.953Z,154291.44
2023-04-25T14:01:54.256Z,154247.25
2023-04-25T14:04:27.538Z,154336.94
2023-04-25T14:06:57.852Z,154369.47
2023-04-25T14:09:28.580Z,154357.72
2023-04-25T14:11:59.760Z,154314.84
2023-04-25T14:14:29.999Z,154353.88
2023-04-25T14:17:00.142Z,154351.25
2023-04-25T14:19:34.294Z,154512.38
2023-04-25T14:22:04.508Z,154377.22
2023-04-25T14:24:34.658Z,154357.72
2023-04-25T14:27:05.387Z,154299.25
2023-04-25T14:29:35.687Z,154199.19
2023-04-25T14:32:06.635Z,154216.09
2023-04-25T14:34:39.455Z,154161.53
2023-04-25T14:37:09.626Z,154152.44
2023-04-25T14:39:40.182Z,154145.97
2023-04-25T14:42:10.364Z,154169.31
2023-04-25T14:44:40.556Z,154174.50
2023-04-25T14:47:12.198Z,154210.91
2023-04-25T14:49:45.146Z,154205.72
2023-04-25T14:52:25.189Z,154260.28
2023-04-25T14:54:57.732Z,154312.22
2023-04-25T14:57:28.077Z,154343.44
2023-04-25T14:59:58.379Z,154340.88
2023-04-25T15:02:28.730Z,154322.66
2023-04-25T15:05:02.298Z,154286.25
2023-04-25T15:07:32.951Z,154236.88
2023-04-25T15:10:04.047Z,154194.00
2023-04-25T15:12:34.264Z,154240.78
2023-04-25T15:15:04.530Z,154270.66
2023-04-25T15:17:34.967Z,154307.03
2023-04-25T15:20:11.031Z,154304.44
2023-04-25T15:22:44.064Z,154347.34
2023-04-25T15:25:14.649Z,154342.16
2023-04-25T15:27:45.311Z,154355.16
2023-04-25T15:30:16.809Z,154294.00
2023-04-25T15:32:47.825Z,154244.69
2023-04-25T15:35:20.671Z,154194.00
2023-04-25T15:37:52.646Z,154174.50
2023-04-25T15:40:22.993Z,154195.31
2023-04-25T15:42:55.425Z,154210.91
2023-04-25T15:45:31.017Z,154161.53
2023-04-25T15:48:02.301Z,154113.47
2023-04-25T15:50:36.635Z,154103.09
2023-04-25T15:53:07.417Z,154126.47
2023-04-25T15:55:39.243Z,154055.03
2023-04-25T15:58:10.707Z,154044.66
2023-04-25T16:00:43.699Z,154043.38
2023-04-25T16:03:15.158Z,153984.88
2023-04-25T16:05:48.334Z,153949.84
2023-04-25T16:08:18.565Z,153921.28
2023-04-25T16:10:48.886Z,153926.47
2023-04-25T16:13:19.090Z,153908.31
2023-04-25T16:15:51.777Z,153871.94
2023-04-25T16:18:22.127Z,153860.28
2023-04-25T16:20:54.882Z,153851.19
2023-04-25T16:23:26.701Z,153864.19
2023-04-25T16:25:57.071Z,153822.63
2023-04-25T16:28:27.286Z,153779.84
2023-04-25T16:30:57.733Z,153770.75
2023-04-25T16:33:30.629Z,153770.75
2023-04-25T16:36:04.019Z,153759.09
2023-04-25T16:38:34.147Z,153750.00
2023-04-25T16:41:04.488Z,153726.66
2023-04-25T16:43:34.810Z,153725.34
2023-04-25T16:46:04.979Z,153743.53
2023-04-25T16:48:37.826Z,153756.47
2023-04-25T16:51:12.129Z,153744.81
2023-04-25T16:53:49.761Z,153720.19
2023-04-25T16:56:34.951Z,153709.81
2023-04-25T16:59:05.285Z,153663.03
2023-04-25T17:01:36.478Z,153647.47
2023-04-25T17:04:06.745Z,153642.28
2023-04-25T17:06:39.680Z,153604.72
2023-04-25T17:09:10.733Z,153580.06
2023-04-25T17:11:42.979Z,153554.09
2023-04-25T17:14:13.147Z,153529.47
2023-04-25T17:16:43.445Z,153502.25
2023-04-25T17:19:13.736Z,153481.50
2023-04-25T17:21:47.440Z,153469.81
2023-04-25T17:24:22.231Z,153447.81
2023-04-25T17:26:52.441Z,153437.44
2023-04-25T17:29:24.047Z,153386.91
2023-04-25T17:31:54.319Z,153377.81
2023-04-25T17:34:24.458Z,153353.19
2023-04-25T17:36:57.689Z,153335.00
2023-04-25T17:39:30.321Z,153324.63
2023-04-25T17:42:10.804Z,153324.63
2023-04-25T17:44:41.223Z,153272.81
2023-04-25T17:47:14.593Z,153252.03
2023-04-25T17:49:49.079Z,153242.97
2023-04-25T17:52:32.178Z,153237.78
2023-04-25T17:55:11.379Z,153209.31
2023-04-25T17:57:41.623Z,153180.81
2023-04-25T18:00:21.515Z,153175.63
2023-04-25T18:02:56.052Z,153144.56
2023-04-25T18:05:26.335Z,153127.69
2023-04-25T18:08:10.561Z,153131.59
2023-04-25T18:10:43.836Z,153114.78
2023-04-25T18:13:14.910Z,153099.19
2023-04-25T18:15:51.937Z,153109.59
2023-04-25T18:18:35.067Z,153079.81
2023-04-25T18:21:09.486Z,153099.19
2023-04-25T18:23:42.453Z,153082.38
2023-04-25T18:26:24.549Z,153065.56
2023-04-25T18:28:57.818Z,153046.13
2023-04-25T18:31:36.427Z,153028.00
2023-04-25T18:34:28.843Z,153020.19
2023-04-25T18:37:10.016Z,152989.16
2023-04-25T18:39:45.937Z,152973.63
2023-04-25T18:42:16.450Z,152971.06
2023-04-25T18:44:46.751Z,152952.91
2023-04-25T18:47:16.978Z,152961.97
2023-04-25T18:49:48.734Z,152924.38
2023-04-25T18:52:19.359Z,152960.66
2023-04-25T18:54:58.415Z,152938.63
2023-04-25T18:57:39.315Z,152932.16
2023-04-25T19:00:13.135Z,152936.00
2023-04-25T19:02:44.622Z,152936.00
2023-04-25T19:05:14.976Z,152923.09
2023-04-25T19:07:45.344Z,152919.19
2023-04-25T19:10:21.325Z,152885.53
2023-04-25T19:12:51.595Z,152895.88
2023-04-25T19:15:22.793Z,152885.53
2023-04-25T19:17:53.806Z,152872.63
2023-04-25T19:20:23.959Z,152855.78
2023-04-25T19:22:54.506Z,152829.91
2023-04-25T19:25:28.472Z,152811.78
2023-04-25T19:28:00.737Z,152828.63
2023-04-25T19:30:31.933Z,152797.53
2023-04-25T19:33:03.665Z,152776.84
2023-04-25T19:35:33.827Z,152774.28
2023-04-25T19:38:04.986Z,152787.19
2023-04-25T19:40:38.580Z,152774.28
2023-04-25T19:43:09.701Z,152760.03
2023-04-25T19:45:40.331Z,152756.16
2023-04-25T19:48:10.562Z,152763.94
2023-04-25T19:50:40.761Z,152731.56
2023-04-25T19:53:11.015Z,152708.25
2023-04-25T19:55:44.640Z,152706.97
2023-04-25T19:58:14.823Z,152703.09
2023-04-25T20:00:45.293Z,152685.00
2023-04-25T20:03:16.699Z,152659.09
2023-04-25T20:05:47.422Z,152673.34
2023-04-25T20:08:17.846Z,152656.53
2023-04-25T20:10:50.698Z,152631.97
2023-04-25T20:13:20.888Z,152630.69
2023-04-25T20:15:51.331Z,152608.69
2023-04-25T20:18:21.775Z,152595.78
2023-04-25T20:20:52.212Z,152577.66
2023-04-25T20:23:22.437Z,152578.94
2023-04-25T20:25:55.298Z,152603.50
2023-04-25T20:28:27.172Z,152597.06
2023-04-25T20:30:57.581Z,152575.03
2023-04-25T20:33:28.251Z,152580.22
2023-04-25T20:35:58.753Z,152576.38
2023-04-25T20:38:29.758Z,152536.28
2023-04-25T20:41:02.770Z,152520.75
2023-04-25T20:43:34.730Z,152534.97
2023-04-25T20:46:05.727Z,152519.47
2023-04-25T20:48:36.061Z,152525.91
2023-04-25T20:51:07.443Z,152511.72
2023-04-25T20:53:37.894Z,152519.47
2023-04-25T20:56:11.118Z,152532.41
2023-04-25T20:58:41.454Z,152545.31
2023-04-25T21:01:12.861Z,152537.56
2023-04-25T21:03:43.495Z,152515.56
2023-04-25T21:06:13.932Z,152505.22
2023-04-25T21:08:44.143Z,152497.50
2023-04-25T21:11:17.527Z,152507.84
2023-04-25T21:13:48.137Z,152492.34
2023-04-25T21:16:18.369Z,152470.31
2023-04-25T21:18:48.500Z,152445.72
2023-04-25T21:21:18.720Z,152453.50
2023-04-25T21:23:48.932Z,152458.66
2023-04-25T21:26:22.406Z,152427.66
2023-04-25T21:28:54.311Z,152432.81
2023-04-25T21:31:25.219Z,152441.81
2023-04-25T21:33:55.401Z,152422.47
2023-04-25T21:36:26.312Z,152419.88
2023-04-25T21:38:56.500Z,152401.75
2023-04-25T21:41:29.421Z,152394.03
2023-04-25T21:44:00.143Z,152390.16
2023-04-25T21:46:30.464Z,152399.22
2023-04-25T21:49:00.859Z,152400.47
2023-04-25T21:51:32.397Z,152377.22
2023-04-25T21:54:05.590Z,152360.44
2023-04-25T21:56:38.386Z,152379.81
2023-04-25T21:59:08.547Z,152375.94
2023-04-25T22:01:38.945Z,152391.44
2023-04-25T22:04:09.322Z,152364.31
2023-04-25T22:06:39.757Z,152359.16
2023-04-25T22:09:10.003Z,152359.16
2023-04-25T22:11:43.634Z,152339.75
2023-04-25T22:14:13.797Z,152351.38
2023-04-25T22:16:43.963Z,152347.50
2023-04-25T22:19:14.316Z,152321.66
2023-04-25T22:21:44.514Z,152357.81
2023-04-25T22:24:15.390Z,152353.97
2023-04-25T22:26:48.217Z,152338.47
2023-04-25T22:29:18.449Z,152322.94
2023-04-25T22:31:48.687Z,152351.38
2023-04-25T22:34:18.969Z,152365.59
2023-04-25T22:36:49.635Z,152337.16
2023-04-25T22:39:22.425Z,152328.09
2023-04-25T22:41:55.147Z,152311.31
2023-04-25T22:44:25.295Z,152311.31
2023-04-25T22:46:55.772Z,152308.75
2023-04-25T22:49:26.575Z,152307.44
2023-04-25T22:51:57.754Z,152289.38
2023-04-25T22:54:28.740Z,152316.50
2023-04-25T22:57:01.640Z,152302.28
2023-04-25T22:59:32.448Z,152315.22
2023-04-25T23:02:02.731Z,152311.31
2023-04-25T23:04:33.094Z,152306.16
2023-04-25T23:07:03.808Z,152298.38
2023-04-25T23:09:34.514Z,152311.31
2023-04-25T23:12:07.531Z,152308.75
2023-04-25T23:14:37.646Z,152310.03
2023-04-25T23:17:08.052Z,152307.44
2023-04-25T23:19:38.374Z,152325.53
2023-04-25T23:22:09.372Z,152317.75
2023-04-25T23:24:40.961Z,152306.16
2023-04-25T23:27:13.767Z,152297.09
2023-04-25T23:29:44.066Z,152280.31
2023-04-25T23:32:14.635Z,152267.38
2023-04-25T23:34:44.773Z,152262.22
2023-04-25T23:37:16.363Z,152242.84
2023-04-25T23:39:58.206Z,152254.50
2023-04-25T23:42:31.049Z,152238.94
2023-04-25T23:45:01.679Z,152222.19
2023-04-25T23:47:32.024Z,152223.47
2023-04-25T23:50:02.260Z,152211.84
2023-04-25T23:52:32.445Z,152209.25
2023-04-25T23:55:05.649Z,152228.63
2023-04-25T23:57:38.632Z,152222.19
